Strona główna
METAR-TAF:

METAR-TAF

Lotnisko :

Hartness State Airport

Springfield, Vermont, Stany Zjednoczone

Szerokość geograficzna: 43-20-33N, Długość geograficzna: 072-31-18W, wysokość: 175 m

Aktualna obserwacja pogody

Raport powstał 59 minut temu, godzina 08:54 UTC
Cisza
Temperatura -18°C
Wilgotność 77%
Ciśnienie 1027 hPa
Widzialność: 16.1 km
bezchmurnie

METAR: KVSF 210854Z AUTO 00000KT 10SM CLR M18/M21 A3034 RMK AO2 SLP289 T11831211 51008

czas: 04:53 (09:53 UTC)


TAF: brakujący

Obserwacja i prognoza pogody dla ponad 4000 lotnisk (raport METAR i TAF).

Dostępne stacje oznaczono żółtymi i czerwonymi punktami na mapie.

Najedź kursorem aby zobaczyć nazwę stacji.

Kliknij aby zobaczyć obserwacje i prognozy pogody.

Aby zmienić mapę: kliknij na zielony przycisk z czarnym krzyżykiem, aby powiększyć; na zielony przycisk z myślnikiem, aby pomniejszyć; na zielone strzałki, aby przejść do map sąsiednich.


METAR-TAF: